Time;durP1;ratioP1;P1;durP2;ratioP2;P2;SDS_P1;SDS_P2;PMS_P1;PMS_P2;Temp;Humidity;BMP_temperature;BMP_pressure;BME280_temperature;BME280_humidity;BME280_pressure;Samples;Min_cycle;Max_cycle;Signal;HPM_P1;HPM_P2
2023/06/08 00:11:07;;;;;;;;;;;;;;;24.40;54.64;100219.88;39555352;29;19936;-78
2023/06/08 00:31:07;;;;;;;;;;;;;;;24.39;54.59;100211.13;39540531;29;20043;-78
2023/06/08 00:51:08;;;;;;;;;;;;;;;24.37;54.70;100206.94;39550786;29;20067;-77
2023/06/08 01:11:16;;;;;;;;;;;;;;;24.32;54.68;100214.50;39554253;29;19926;-77
2023/06/08 01:31:17;;;;;;;;;;;;;;;24.29;54.88;100205.00;39548443;29;19929;-77
2023/06/08 01:51:18;;;;;;;;;;;;;;;24.28;54.73;100213.94;39545851;29;19972;-78
2023/06/08 02:11:26;;;;;;;;;;;;;;;24.25;54.46;100216.84;41891509;27;19919;-78
2023/06/08 02:31:27;;;;;;;;;;;;;;;24.23;54.49;100203.78;41809557;28;19940;-76
2023/06/08 02:51:27;;;;;;;;;;;;;;;24.21;54.78;100208.38;41815915;28;19944;-77
2023/06/08 03:11:27;;;;;;;;;;;;;;;24.20;54.85;100193.47;41723590;28;19940;-76
2023/06/08 03:31:29;;;;;;;;;;;;;;;24.19;54.88;100198.91;41700015;28;19937;-79
2023/06/08 03:51:30;;;;;;;;;;;;;;;24.15;54.75;100203.66;41674848;28;19959;-78
2023/06/08 04:11:30;;;;;;;;;;;;;;;24.21;54.68;100199.63;41656392;28;19970;-77
2023/06/08 04:31:30;;;;;;;;;;;;;;;24.29;54.93;100211.13;41620272;28;19925;-76
2023/06/08 04:51:31;;;;;;;;;;;;;;;24.33;55.41;100208.19;41607341;28;19935;-83
2023/06/08 05:11:31;;;;;;;;;;;;;;;24.40;56.70;100223.38;41612763;28;19952;-77
2023/06/08 05:31:31;;;;;;;;;;;;;;;24.01;56.86;100226.09;41629703;28;20018;-73
2023/06/08 05:51:31;;;;;;;;;;;;;;;23.59;57.42;100218.44;41650721;28;19932;-78
2023/06/08 06:11:32;;;;;;;;;;;;;;;23.44;57.51;100223.31;41653424;28;20213;-74
2023/06/08 06:31:32;;;;;;;;;;;;;;;23.71;57.13;100229.72;41656894;28;20460;-74
2023/06/08 06:51:33;;;;;;;;;;;;;;;23.91;56.33;100234.03;41677504;28;20311;-74
2023/06/08 07:11:33;;;;;;;;;;;;;;;23.99;55.93;100230.69;41705220;28;19925;-75
2023/06/08 07:31:34;;;;;;;;;;;;;;;24.07;55.82;100219.41;41714309;28;20391;-75
2023/06/08 07:51:34;;;;;;;;;;;;;;;24.12;55.95;100225.09;41671555;28;19944;-75
2023/06/08 08:11:37;;;;;;;;;;;;;;;24.15;55.81;100222.16;41679784;28;20303;-75
2023/06/08 08:31:37;;;;;;;;;;;;;;;24.19;55.79;100220.91;41700722;28;20462;-75
2023/06/08 08:51:43;;;;;;;;;;;;;;;24.26;55.76;100221.19;41750732;28;19978;-76
2023/06/08 09:11:58;;;;;;;;;;;;;;;24.34;55.65;100204.56;41806544;28;20396;-75
2023/06/08 09:32:00;;;;;;;;;;;;;;;24.44;56.76;100187.69;41806917;28;19933;-77
2023/06/08 09:52:01;;;;;;;;;;;;;;;24.54;56.39;100163.81;41823033;28;19951;-80
2023/06/08 10:12:03;;;;;;;;;;;;;;;24.33;59.16;100144.69;41728022;28;19952;-78
2023/06/08 10:32:10;;;;;;;;;;;;;;;24.04;58.00;100129.78;41762305;28;19936;-82
2023/06/08 10:52:17;;;;;;;;;;;;;;;23.75;58.03;100123.53;41749830;28;19932;-81
2023/06/08 11:12:19;;;;;;;;;;;;;;;23.63;57.52;100103.53;41733232;28;19929;-83
2023/06/08 11:32:20;;;;;;;;;;;;;;;23.95;57.35;100105.84;41560626;28;19930;-76
2023/06/08 11:52:24;;;;;;;;;;;;;;;24.18;56.68;100073.75;41530785;28;20028;-78
2023/06/08 12:12:28;;;;;;;;;;;;;;;24.30;56.63;100059.34;41715619;28;19933;-78
2023/06/08 12:32:28;;;;;;;;;;;;;;;24.42;56.96;100046.72;41720435;28;20309;-75
2023/06/08 12:52:28;;;;;;;;;;;;;;;24.42;56.12;100037.97;41710400;28;19929;-76
2023/06/08 13:12:30;;;;;;;;;;;;;;;24.28;55.60;100041.97;41680804;28;20002;-75
2023/06/08 13:32:30;;;;;;;;;;;;;;;24.41;56.71;100047.72;41674480;28;20401;-74
2023/06/08 13:52:33;;;;;;;;;;;;;;;24.68;56.39;100029.31;41733574;28;19925;-76
2023/06/08 14:12:51;;;;;;;;;;;;;;;24.73;56.27;100003.22;41670970;28;20007;-75
2023/06/08 14:32:51;;;;;;;;;;;;;;;24.76;55.75;99979.09;41682450;28;19960;-71
2023/06/08 14:52:52;;;;;;;;;;;;;;;24.82;54.69;99989.06;41648724;28;19929;-72
2023/06/08 15:12:52;;;;;;;;;;;;;;;24.80;54.23;99959.25;41667407;28;19944;-74
2023/06/08 15:32:53;;;;;;;;;;;;;;;24.82;54.36;99953.84;41649286;28;19936;-75
2023/06/08 15:52:53;;;;;;;;;;;;;;;24.78;55.11;99962.06;41627499;28;20364;-75
2023/06/08 16:12:53;;;;;;;;;;;;;;;24.80;55.66;99927.50;41671463;28;19932;-75
2023/06/08 16:32:54;;;;;;;;;;;;;;;24.81;54.99;99933.63;41681117;28;20404;-75
2023/06/08 16:52:54;;;;;;;;;;;;;;;24.74;55.04;99934.25;41665971;28;20303;-73
2023/06/08 17:12:54;;;;;;;;;;;;;;;24.76;57.36;99950.78;41646023;28;19933;-74
2023/06/08 17:32:54;;;;;;;;;;;;;;;24.76;58.59;99953.44;41531050;28;19937;-71
2023/06/08 17:52:59;;;;;;;;;;;;;;;24.71;57.79;99949.59;41505395;28;20333;-73
2023/06/08 18:12:59;;;;;;;;;;;;;;;24.62;57.63;99935.44;41496956;28;19930;-71
2023/06/08 18:33:00;;;;;;;;;;;;;;;24.50;57.43;99966.59;41462981;28;19940;-74
2023/06/08 18:53:00;;;;;;;;;;;;;;;24.39;57.60;99970.28;41521908;28;19913;-75
2023/06/08 19:13:00;;;;;;;;;;;;;;;24.29;57.51;99983.59;41549223;28;19932;-75
2023/06/08 19:33:01;;;;;;;;;;;;;;;24.12;57.75;99997.59;41548738;28;20335;-74
2023/06/08 19:53:01;;;;;;;;;;;;;;;23.92;58.15;99999.50;41555907;28;19933;-77
2023/06/08 20:13:02;;;;;;;;;;;;;;;23.82;58.47;99999.53;41524586;28;19929;-78
2023/06/08 20:33:04;;;;;;;;;;;;;;;23.67;58.96;99992.06;41539604;28;20028;-77
2023/06/08 20:53:05;;;;;;;;;;;;;;;23.58;59.11;99998.25;41544571;28;20391;-77
2023/06/08 21:13:05;;;;;;;;;;;;;;;23.67;58.98;100001.81;41521360;28;19933;-76
2023/06/08 21:33:06;;;;;;;;;;;;;;;23.53;59.24;100028.72;41524317;28;19944;-76
2023/06/08 21:53:09;;;;;;;;;;;;;;;23.43;59.55;100023.44;41508046;28;19964;-76
2023/06/08 22:13:10;;;;;;;;;;;;;;;23.36;59.89;100003.88;41519099;28;19992;-76
2023/06/08 22:33:12;;;;;;;;;;;;;;;23.25;59.99;100010.13;41548588;28;20024;-76
2023/06/08 22:53:12;;;;;;;;;;;;;;;23.23;59.72;99994.44;41671099;28;19929;-76
2023/06/08 23:13:13;;;;;;;;;;;;;;;23.09;60.11;99963.16;41698701;28;19932;-77
2023/06/08 23:33:13;;;;;;;;;;;;;;;22.99;60.75;99961.34;41703686;28;19935;-77
2023/06/08 23:53:14;;;;;;;;;;;;;;;22.92;61.22;99959.41;41693134;28;19983;-76
